createdAt,value
2023-05-12T00:01:46.213Z,64.84
2023-05-12T00:02:46.261Z,64.72
2023-05-12T00:03:46.365Z,64.82
2023-05-12T00:04:46.212Z,64.74
2023-05-12T00:06:46.159Z,64.64
2023-05-12T00:07:46.201Z,64.73
2023-05-12T00:08:46.209Z,64.72
2023-05-12T00:09:46.164Z,64.50
2023-05-12T00:10:46.160Z,64.50
2023-05-12T00:11:46.214Z,64.74
2023-05-12T00:12:46.222Z,64.67
2023-05-12T00:13:46.212Z,64.83
2023-05-12T00:14:46.241Z,64.87
2023-05-12T00:15:46.218Z,64.66
2023-05-12T00:16:46.295Z,64.71
2023-05-12T00:17:46.258Z,64.69
2023-05-12T00:18:46.226Z,64.69
2023-05-12T00:19:46.215Z,65.03
2023-05-12T00:20:46.186Z,64.76
2023-05-12T00:21:46.285Z,64.57
2023-05-12T00:22:46.232Z,64.56
2023-05-12T00:23:46.200Z,64.56
2023-05-12T00:24:46.208Z,64.54
2023-05-12T00:25:46.214Z,64.55
2023-05-12T00:28:46.255Z,64.08
2023-05-12T00:29:46.284Z,64.00
2023-05-12T00:31:46.258Z,64.00
2023-05-12T00:32:46.352Z,64.01
2023-05-12T00:34:46.215Z,63.97
2023-05-12T00:36:46.274Z,63.71
2023-05-12T00:37:46.261Z,63.97
2023-05-12T00:39:46.225Z,63.93
2023-05-12T00:41:46.272Z,63.90
2023-05-12T00:42:46.253Z,63.90
2023-05-12T00:43:46.266Z,63.88
2023-05-12T00:44:46.249Z,63.88
2023-05-12T00:45:46.368Z,64.02
2023-05-12T00:47:46.332Z,64.12
2023-05-12T00:48:46.283Z,64.31
2023-05-12T00:49:46.273Z,64.31
2023-05-12T00:50:46.304Z,63.46
2023-05-12T00:52:46.261Z,63.55
2023-05-12T00:53:50.024Z,64.08
2023-05-12T00:54:46.321Z,64.06
2023-05-12T00:56:46.334Z,63.94
2023-05-12T00:58:46.351Z,63.72
2023-05-12T00:59:46.337Z,63.72
2023-05-12T01:00:46.321Z,63.72
2023-05-12T01:01:46.351Z,63.62
2023-05-12T01:02:46.451Z,63.63
2023-05-12T01:03:46.422Z,63.61
2023-05-12T01:04:46.369Z,63.67
2023-05-12T01:05:46.323Z,63.67
2023-05-12T01:06:46.370Z,64.09
2023-05-12T01:08:46.374Z,64.50
2023-05-12T01:09:46.354Z,64.47
2023-05-12T01:10:46.325Z,64.47
2023-05-12T01:11:46.379Z,64.00
2023-05-12T01:13:46.356Z,64.33
2023-05-12T01:14:46.414Z,64.31
2023-05-12T01:16:46.423Z,64.29
2023-05-12T01:17:46.473Z,64.29
2023-05-12T01:18:46.357Z,64.14
2023-05-12T01:19:46.374Z,64.05
2023-05-12T01:20:46.396Z,64.36
2023-05-12T01:21:46.414Z,64.19
2023-05-12T01:22:46.405Z,64.14
2023-05-12T01:24:46.396Z,63.81
2023-05-12T01:27:46.448Z,63.91
2023-05-12T01:28:46.393Z,63.98
2023-05-12T01:29:46.427Z,63.76
2023-05-12T01:30:46.445Z,63.87
2023-05-12T01:31:46.503Z,63.87
2023-05-12T01:32:46.458Z,63.93
2023-05-12T01:33:46.436Z,63.91
2023-05-12T01:35:46.412Z,63.89
2023-05-12T01:38:46.435Z,64.31
2023-05-12T01:39:46.396Z,64.31
2023-05-12T01:42:46.472Z,63.93
2023-05-12T01:43:46.452Z,63.78
2023-05-12T01:44:46.438Z,63.81
2023-05-12T01:46:46.437Z,63.64
2023-05-12T01:47:46.530Z,63.65
2023-05-12T01:48:46.491Z,63.79
2023-05-12T01:50:46.479Z,64.03
2023-05-12T01:51:46.485Z,64.14
2023-05-12T01:52:46.447Z,64.14
2023-05-12T01:54:46.465Z,64.31
2023-05-12T01:55:46.489Z,64.31
2023-05-12T01:59:46.488Z,64.45
2023-05-12T02:00:46.458Z,64.45
2023-05-12T02:01:46.549Z,64.24
2023-05-12T02:02:46.564Z,64.18
2023-05-12T02:05:46.461Z,64.57
2023-05-12T02:08:46.496Z,64.34
2023-05-12T02:09:46.497Z,64.42
2023-05-12T02:10:46.453Z,64.42
2023-05-12T02:11:46.527Z,64.52
2023-05-12T02:15:46.522Z,64.39
2023-05-12T02:16:46.595Z,64.44
2023-05-12T02:17:46.609Z,64.37
2023-05-12T02:18:46.528Z,64.37
2023-05-12T02:19:46.547Z,64.35
2023-05-12T02:21:46.518Z,64.52
2023-05-12T02:22:46.562Z,64.51
2023-05-12T02:23:46.516Z,64.51
2023-05-12T02:24:46.559Z,64.13
2023-05-12T02:27:46.560Z,64.37
2023-05-12T02:28:46.514Z,64.37
2023-05-12T02:31:46.708Z,64.51
2023-05-12T02:32:46.621Z,64.37
2023-05-12T02:38:46.610Z,64.55
2023-05-12T02:39:46.614Z,64.45
2023-05-12T02:40:46.599Z,64.56
2023-05-12T02:42:46.625Z,64.40
2023-05-12T02:44:46.581Z,64.57
2023-05-12T02:45:46.601Z,64.16
2023-05-12T02:46:46.631Z,64.27
2023-05-12T02:47:46.630Z,64.21
2023-05-12T02:48:46.616Z,63.99
2023-05-12T02:49:46.607Z,64.17
2023-05-12T02:50:46.591Z,64.17
2023-05-12T02:53:46.594Z,64.06
2023-05-12T02:54:46.580Z,64.37
2023-05-12T02:56:46.648Z,64.31
2023-05-12T02:57:46.588Z,64.31
2023-05-12T02:59:46.645Z,64.25
2023-05-12T03:00:48.703Z,64.27
2023-05-12T03:01:46.724Z,64.18
2023-05-12T03:02:46.711Z,64.18
2023-05-12T03:03:46.836Z,64.32
2023-05-12T03:04:46.625Z,64.16
2023-05-12T03:05:46.631Z,64.33
2023-05-12T03:06:46.654Z,64.49
2023-05-12T03:07:46.651Z,64.49
2023-05-12T03:08:46.638Z,64.52
2023-05-12T03:10:46.616Z,64.20
2023-05-12T03:12:46.677Z,64.02
2023-05-12T03:13:46.702Z,64.15
2023-05-12T03:14:46.660Z,64.23
2023-05-12T03:16:46.710Z,63.99
2023-05-12T03:17:46.772Z,64.02
2023-05-12T03:19:46.689Z,64.03
2023-05-12T03:20:46.696Z,64.04
2023-05-12T03:22:46.709Z,64.14
2023-05-12T03:23:46.817Z,64.14
2023-05-12T03:24:46.723Z,64.15
2023-05-12T03:25:46.685Z,64.22
2023-05-12T03:26:46.686Z,64.11
2023-05-12T03:27:46.713Z,64.13
2023-05-12T03:28:46.695Z,63.99
2023-05-12T03:29:46.732Z,63.90
2023-05-12T03:30:46.740Z,63.86
2023-05-12T03:31:46.806Z,63.81
2023-05-12T03:32:46.705Z,63.91
2023-05-12T03:36:46.713Z,64.21
2023-05-12T03:37:46.711Z,63.83
2023-05-12T03:40:46.776Z,64.02
2023-05-12T03:42:46.749Z,63.99
2023-05-12T03:43:46.697Z,63.99
2023-05-12T03:44:46.719Z,64.06
2023-05-12T03:46:46.837Z,63.74
2023-05-12T03:47:46.819Z,63.69
2023-05-12T03:50:46.764Z,63.49
2023-05-12T03:51:46.765Z,63.57
2023-05-12T03:52:46.793Z,63.71
2023-05-12T03:53:46.778Z,63.76
2023-05-12T03:54:46.740Z,63.76
2023-05-12T03:56:46.804Z,63.82
2023-05-12T03:57:46.770Z,63.94
2023-05-12T03:59:46.762Z,63.73
2023-05-12T04:00:46.784Z,63.83
2023-05-12T04:04:46.787Z,63.90
2023-05-12T04:05:46.811Z,63.57
2023-05-12T04:06:46.800Z,63.64
2023-05-12T04:07:46.760Z,63.64
2023-05-12T04:08:46.793Z,63.79
2023-05-12T04:09:46.793Z,63.97
2023-05-12T04:10:46.811Z,63.95
2023-05-12T04:11:46.815Z,63.99
2023-05-12T04:13:46.846Z,63.75
2023-05-12T04:15:46.786Z,63.55
2023-05-12T04:16:46.830Z,63.72
2023-05-12T04:17:46.838Z,63.73
2023-05-12T04:18:46.918Z,63.62
2023-05-12T04:19:46.841Z,63.78
2023-05-12T04:24:47.130Z,64.24
2023-05-12T04:25:46.838Z,64.24
2023-05-12T04:32:46.978Z,63.75
2023-05-12T04:33:48.344Z,63.73
2023-05-12T04:36:46.886Z,63.76
2023-05-12T04:37:46.880Z,63.59
2023-05-12T04:38:46.856Z,63.58
2023-05-12T04:40:46.876Z,63.83
2023-05-12T04:41:46.866Z,63.73
2023-05-12T04:42:46.880Z,63.77
2023-05-12T04:44:46.880Z,63.82
2023-05-12T04:45:46.951Z,63.86
2023-05-12T04:47:46.973Z,63.49
2023-05-12T04:48:46.891Z,63.32
2023-05-12T04:50:46.959Z,63.45
2023-05-12T04:51:46.884Z,63.45
2023-05-12T04:53:46.942Z,63.45
2023-05-12T04:54:46.896Z,63.45
2023-05-12T04:55:46.915Z,63.48
2023-05-12T04:56:47.013Z,63.47
2023-05-12T04:57:46.937Z,63.21
2023-05-12T04:58:46.930Z,63.36
2023-05-12T05:00:46.950Z,63.47
2023-05-12T05:02:46.958Z,63.13
2023-05-12T05:03:46.999Z,63.13
2023-05-12T05:04:46.908Z,63.06
2023-05-12T05:05:46.942Z,63.12
2023-05-12T05:06:46.930Z,63.05
2023-05-12T05:07:46.937Z,63.06
2023-05-12T05:08:46.950Z,63.02
2023-05-12T05:09:46.976Z,62.89
2023-05-12T05:12:46.931Z,62.72
2023-05-12T05:13:46.967Z,62.75
2023-05-12T05:14:47.028Z,62.75
2023-05-12T05:15:46.944Z,62.57
2023-05-12T05:16:46.990Z,62.50
2023-05-12T05:17:47.108Z,62.41
2023-05-12T05:18:47.116Z,62.35
2023-05-12T05:19:57.428Z,62.35
2023-05-12T05:22:47.025Z,63.00
2023-05-12T05:23:46.978Z,63.00
2023-05-12T05:24:47.021Z,62.84
2023-05-12T05:25:46.949Z,62.81
2023-05-12T05:27:46.992Z,62.64
2023-05-12T05:30:47.042Z,62.56
2023-05-12T05:34:47.058Z,62.16
2023-05-12T05:35:47.034Z,62.32
2023-05-12T05:36:47.012Z,61.88
2023-05-12T05:37:47.016Z,61.88
2023-05-12T05:38:46.985Z,62.02
2023-05-12T05:39:47.042Z,61.98
2023-05-12T05:40:53.643Z,62.16
2023-05-12T05:41:47.027Z,62.22
2023-05-12T05:42:47.019Z,62.01
2023-05-12T05:43:47.017Z,62.01
2023-05-12T05:44:47.064Z,61.98
2023-05-12T05:45:47.050Z,62.01
2023-05-12T05:46:47.045Z,62.01
2023-05-12T05:47:47.130Z,62.06
2023-05-12T05:48:47.038Z,62.20
2023-05-12T05:49:47.048Z,61.84
2023-05-12T05:50:47.097Z,61.84
2023-05-12T05:51:47.051Z,61.70
2023-05-12T05:52:47.050Z,61.71
2023-05-12T05:53:47.069Z,61.22
2023-05-12T05:54:47.089Z,61.22
2023-05-12T05:55:47.087Z,61.01
2023-05-12T05:56:47.022Z,61.12
2023-05-12T05:57:47.080Z,60.68
2023-05-12T05:59:47.036Z,60.33
2023-05-12T06:00:47.097Z,60.40
2023-05-12T06:01:47.178Z,60.40
2023-05-12T06:02:47.211Z,60.37
2023-05-12T06:03:47.251Z,60.44
2023-05-12T06:05:47.100Z,60.06
2023-05-12T06:06:47.093Z,60.06
2023-05-12T06:07:47.093Z,60.12
2023-05-12T06:08:47.096Z,60.10
2023-05-12T06:09:47.097Z,60.15
2023-05-12T06:10:47.107Z,60.33
2023-05-12T06:11:47.098Z,59.98
2023-05-12T06:12:47.108Z,59.98
2023-05-12T06:13:47.113Z,59.99
2023-05-12T06:14:47.130Z,59.35
2023-05-12T06:15:47.105Z,59.35
2023-05-12T06:16:47.159Z,59.42
2023-05-12T06:17:47.112Z,59.42
2023-05-12T06:18:47.150Z,59.27
2023-05-12T06:19:47.121Z,59.33
2023-05-12T06:20:47.137Z,59.35
2023-05-12T06:21:47.125Z,59.35
2023-05-12T06:22:47.087Z,59.33
2023-05-12T06:23:47.132Z,59.09
2023-05-12T06:24:47.129Z,58.85
2023-05-12T06:25:47.095Z,58.38
2023-05-12T06:26:47.188Z,58.00
2023-05-12T06:27:47.109Z,58.02
2023-05-12T06:28:47.133Z,56.66
2023-05-12T06:29:47.163Z,56.66
2023-05-12T06:30:47.131Z,56.44
2023-05-12T06:31:47.200Z,56.24
2023-05-12T06:32:47.265Z,56.67
2023-05-12T06:33:47.234Z,56.95
2023-05-12T06:34:47.237Z,56.01
2023-05-12T06:36:47.202Z,55.10
2023-05-12T06:37:47.216Z,55.34
2023-05-12T06:38:47.134Z,55.34
2023-05-12T06:39:47.171Z,55.24
2023-05-12T06:40:47.239Z,55.18
2023-05-12T06:41:47.160Z,54.71
2023-05-12T06:42:47.185Z,54.71
2023-05-12T06:43:47.171Z,54.89
2023-05-12T06:44:47.198Z,54.71
2023-05-12T06:45:47.244Z,54.71
2023-05-12T06:46:47.271Z,54.86
2023-05-12T06:47:47.264Z,54.71
2023-05-12T06:48:47.155Z,54.75
2023-05-12T06:49:47.226Z,54.51
2023-05-12T06:50:47.214Z,54.57
2023-05-12T06:51:47.192Z,54.57
2023-05-12T06:52:47.242Z,54.20
2023-05-12T06:53:47.210Z,53.65
2023-05-12T06:54:47.190Z,53.78
2023-05-12T06:55:47.224Z,53.33
2023-05-12T06:56:47.211Z,53.33
2023-05-12T06:57:47.213Z,53.36
2023-05-12T06:58:47.216Z,53.51
2023-05-12T06:59:47.190Z,53.11
2023-05-12T07:00:47.236Z,52.99
2023-05-12T07:01:47.281Z,52.89
2023-05-12T07:02:47.282Z,52.89
2023-05-12T07:03:47.290Z,53.06
2023-05-12T07:04:47.200Z,53.08
2023-05-12T07:05:47.287Z,53.59
2023-05-12T07:06:47.263Z,53.62
2023-05-12T07:07:47.245Z,53.52
2023-05-12T07:08:47.251Z,53.52
2023-05-12T07:09:47.253Z,53.90
2023-05-12T07:10:47.260Z,54.21
2023-05-12T07:11:47.286Z,54.60
2023-05-12T07:12:47.247Z,54.60
2023-05-12T07:13:47.298Z,54.87
2023-05-12T07:14:47.276Z,55.24
2023-05-12T07:15:47.325Z,55.15
2023-05-12T07:16:47.284Z,55.05
2023-05-12T07:17:47.431Z,55.22
2023-05-12T07:18:47.305Z,55.02
2023-05-12T07:20:47.282Z,54.85
2023-05-12T07:21:47.288Z,55.30
2023-05-12T07:22:47.234Z,55.30
2023-05-12T07:23:47.330Z,55.60
2023-05-12T07:26:47.291Z,55.29
2023-05-12T07:27:47.311Z,55.22
2023-05-12T07:28:47.334Z,55.51
2023-05-12T07:29:47.315Z,55.44
2023-05-12T07:30:47.311Z,55.44
2023-05-12T07:31:47.439Z,55.67
2023-05-12T07:32:47.395Z,55.45
2023-05-12T07:33:47.344Z,55.47
2023-05-12T07:34:47.400Z,55.76
2023-05-12T07:35:47.271Z,55.76
2023-05-12T07:36:47.339Z,56.25
2023-05-12T07:38:47.318Z,56.44
2023-05-12T07:39:47.345Z,56.33
2023-05-12T07:40:47.382Z,56.39
2023-05-12T07:42:47.362Z,56.14
2023-05-12T07:43:47.300Z,56.14
2023-05-12T07:45:47.387Z,55.49
2023-05-12T07:46:47.398Z,55.62
2023-05-12T07:47:47.451Z,54.88
2023-05-12T07:48:47.316Z,54.88
2023-05-12T07:49:47.399Z,55.06
2023-05-12T07:50:47.353Z,55.06
2023-05-12T07:51:47.365Z,54.53
2023-05-12T07:52:47.397Z,54.71
2023-05-12T07:53:47.386Z,54.36
2023-05-12T07:54:47.368Z,54.58
2023-05-12T07:55:47.370Z,54.51
2023-05-12T07:56:47.339Z,54.05
2023-05-12T07:57:47.420Z,54.17
2023-05-12T07:58:47.757Z,53.67
2023-05-12T07:59:47.355Z,53.67
2023-05-12T08:00:47.410Z,53.96
2023-05-12T08:01:47.478Z,54.02
2023-05-12T08:02:47.774Z,53.67
2023-05-12T08:03:47.557Z,52.96
2023-05-12T08:04:47.383Z,52.96
2023-05-12T08:05:47.400Z,52.04
2023-05-12T08:06:47.415Z,51.57
2023-05-12T08:07:47.519Z,51.18
2023-05-12T08:08:47.450Z,51.21
2023-05-12T08:09:47.398Z,50.50
2023-05-12T08:10:47.448Z,49.91
2023-05-12T08:11:50.023Z,49.94
2023-05-12T08:12:47.417Z,49.54
2023-05-12T08:13:47.419Z,49.10
2023-05-12T08:14:47.428Z,49.23
2023-05-12T08:15:47.450Z,48.07
2023-05-12T08:16:47.440Z,48.32
2023-05-12T08:17:47.484Z,48.32
2023-05-12T08:18:47.489Z,49.45
2023-05-12T08:19:47.452Z,49.45
2023-05-12T08:20:47.482Z,49.36
2023-05-12T08:21:47.422Z,49.36
2023-05-12T08:22:47.434Z,49.29
2023-05-12T08:23:47.460Z,49.50
2023-05-12T08:24:47.449Z,49.07
2023-05-12T08:25:47.443Z,49.19
2023-05-12T08:26:47.504Z,48.86
2023-05-12T08:27:47.433Z,48.86
2023-05-12T08:28:47.493Z,48.27
2023-05-12T08:29:47.505Z,47.90
2023-05-12T08:30:47.520Z,48.02
2023-05-12T08:31:47.504Z,48.00
2023-05-12T08:32:47.526Z,48.03
2023-05-12T08:33:51.887Z,47.53
2023-05-12T08:34:47.460Z,47.36
2023-05-12T08:35:47.478Z,47.36
2023-05-12T08:36:47.505Z,47.97
2023-05-12T08:37:47.506Z,47.91
2023-05-12T08:38:47.513Z,47.64
2023-05-12T08:39:47.502Z,47.31
2023-05-12T08:40:47.460Z,47.35
2023-05-12T08:41:47.493Z,47.77
2023-05-12T08:42:47.489Z,47.64
2023-05-12T08:43:47.488Z,47.64
2023-05-12T08:44:47.503Z,47.99
2023-05-12T08:45:47.496Z,47.78
2023-05-12T08:46:47.630Z,47.62
2023-05-12T08:47:47.559Z,47.81
2023-05-12T08:48:47.468Z,47.81
2023-05-12T08:49:47.721Z,47.22
2023-05-12T08:50:47.507Z,46.90
2023-05-12T08:51:56.874Z,46.90
2023-05-12T08:52:47.521Z,46.58
2023-05-12T08:53:47.535Z,46.66
2023-05-12T08:54:55.593Z,46.48
2023-05-12T08:56:01.395Z,46.56
2023-05-12T08:57:47.581Z,45.40
2023-05-12T09:01:47.573Z,45.06
2023-05-12T09:02:53.991Z,44.13
2023-05-12T09:03:47.567Z,44.82
2023-05-12T09:04:47.587Z,44.82
2023-05-12T09:05:47.546Z,45.48
2023-05-12T09:06:47.570Z,45.42
2023-05-12T09:07:47.565Z,45.40
2023-05-12T09:08:47.604Z,45.64
2023-05-12T09:09:47.557Z,45.64
2023-05-12T09:10:47.580Z,45.51
2023-05-12T09:11:47.588Z,45.58
2023-05-12T09:12:47.593Z,46.00
2023-05-12T09:13:47.532Z,46.00
2023-05-12T09:14:47.541Z,45.96
2023-05-12T09:15:47.670Z,46.38
2023-05-12T09:16:47.654Z,45.73
2023-05-12T09:17:47.583Z,45.73
2023-05-12T09:18:47.609Z,45.75
2023-05-12T09:19:47.605Z,46.29
2023-05-12T09:20:47.587Z,46.49
2023-05-12T09:21:47.638Z,46.69
2023-05-12T09:22:47.598Z,46.95
2023-05-12T09:23:47.629Z,47.10
2023-05-12T09:24:47.649Z,46.85
2023-05-12T09:25:47.601Z,47.11
2023-05-12T09:26:47.602Z,47.51
2023-05-12T09:27:47.615Z,46.99
2023-05-12T09:28:47.617Z,47.16
2023-05-12T09:29:58.032Z,48.03
2023-05-12T09:30:47.594Z,48.03
2023-05-12T09:31:47.650Z,46.76
2023-05-12T09:32:47.652Z,45.88
2023-05-12T09:33:47.613Z,46.37
2023-05-12T09:34:47.918Z,46.73
2023-05-12T09:35:47.607Z,46.73
2023-05-12T09:37:47.614Z,45.88
2023-05-12T09:38:47.608Z,45.88
2023-05-12T09:39:47.660Z,45.74
2023-05-12T09:40:47.672Z,45.56
2023-05-12T09:41:47.644Z,43.90
2023-05-12T09:42:47.670Z,44.95
2023-05-12T09:43:47.645Z,44.83
2023-05-12T09:44:47.671Z,44.53
2023-05-12T09:45:47.869Z,43.88
2023-05-12T09:46:47.682Z,43.83
2023-05-12T09:47:47.751Z,43.52
2023-05-12T09:48:47.657Z,43.52
2023-05-12T09:49:47.715Z,43.57
2023-05-12T09:50:48.557Z,43.61
2023-05-12T09:51:47.639Z,43.61
2023-05-12T09:52:47.675Z,43.11
2023-05-12T09:53:47.637Z,42.78
2023-05-12T09:54:47.668Z,41.30
2023-05-12T09:55:47.705Z,40.38
2023-05-12T09:56:47.682Z,40.38
2023-05-12T09:57:47.687Z,39.52
2023-05-12T09:58:47.699Z,39.02
2023-05-12T09:59:47.679Z,39.62
2023-05-12T10:01:47.684Z,39.16
2023-05-12T10:02:47.769Z,38.77
2023-05-12T10:03:47.717Z,38.70
2023-05-12T10:04:47.789Z,38.95
2023-05-12T10:05:47.730Z,38.95
2023-05-12T10:06:47.693Z,38.82
2023-05-12T10:07:47.747Z,38.51
2023-05-12T10:08:47.709Z,39.07
2023-05-12T10:09:47.711Z,38.20
2023-05-12T10:10:47.741Z,38.39
2023-05-12T10:11:47.727Z,38.39
2023-05-12T10:12:47.750Z,38.76
2023-05-12T10:14:47.714Z,39.55
2023-05-12T10:15:47.749Z,37.97
2023-05-12T10:16:47.752Z,38.95
2023-05-12T10:17:47.871Z,38.80
2023-05-12T10:18:47.723Z,38.80
2023-05-12T10:19:47.712Z,37.87
2023-05-12T10:20:47.752Z,37.19
2023-05-12T10:21:47.777Z,37.89
2023-05-12T10:22:47.712Z,37.89
2023-05-12T10:23:47.749Z,37.62
2023-05-12T10:24:47.759Z,36.91
2023-05-12T10:26:47.705Z,37.14
2023-05-12T10:27:47.753Z,37.74
2023-05-12T10:28:47.756Z,37.12
2023-05-12T10:29:47.772Z,37.05
2023-05-12T10:30:48.728Z,37.05
2023-05-12T10:31:48.001Z,38.24
2023-05-12T10:32:47.829Z,38.78
2023-05-12T10:33:47.817Z,39.52
2023-05-12T10:34:47.806Z,38.39
2023-05-12T10:35:49.481Z,38.39
2023-05-12T10:36:47.818Z,38.25
2023-05-12T10:37:47.839Z,38.00
2023-05-12T10:38:47.811Z,37.62
2023-05-12T10:39:47.816Z,37.46
2023-05-12T10:40:47.794Z,37.46
2023-05-12T10:41:47.775Z,37.59
2023-05-12T10:42:47.767Z,37.59
2023-05-12T10:43:47.776Z,37.33
2023-05-12T10:44:47.857Z,38.09
2023-05-12T10:45:47.830Z,38.43
2023-05-12T10:46:47.954Z,38.69
2023-05-12T10:47:47.951Z,38.16
2023-05-12T10:48:47.804Z,38.16
2023-05-12T10:49:47.830Z,38.84
2023-05-12T10:50:47.819Z,38.59
2023-05-12T10:51:47.843Z,38.54
2023-05-12T10:52:47.844Z,39.17
2023-05-12T10:53:50.096Z,39.17
2023-05-12T10:54:47.861Z,39.92
2023-05-12T10:55:48.061Z,39.92
2023-05-12T10:56:48.156Z,39.72
2023-05-12T10:57:48.176Z,40.30
2023-05-12T10:58:48.041Z,39.69
2023-05-12T10:59:48.159Z,39.69
2023-05-12T11:00:48.642Z,39.47
2023-05-12T11:01:48.362Z,39.76
2023-05-12T11:03:48.591Z,39.78
2023-05-12T11:04:48.225Z,39.78
2023-05-12T11:05:48.959Z,41.20
2023-05-12T11:06:48.749Z,41.20
2023-05-12T11:07:48.180Z,41.59
2023-05-12T11:08:48.401Z,41.04
2023-05-12T11:09:57.866Z,41.04
2023-05-12T11:10:47.971Z,41.34
2023-05-12T11:11:47.981Z,40.96
2023-05-12T11:12:47.838Z,39.63
2023-05-12T11:13:47.886Z,40.31
2023-05-12T11:14:47.852Z,40.31
2023-05-12T11:15:47.940Z,41.59
2023-05-12T11:16:47.996Z,41.43
2023-05-12T11:17:47.905Z,41.56
2023-05-12T11:18:47.961Z,40.37
2023-05-12T11:19:47.927Z,40.55
2023-05-12T11:20:47.852Z,40.55
2023-05-12T11:21:47.907Z,39.94
2023-05-12T11:23:47.859Z,39.91
2023-05-12T11:24:47.902Z,39.84
2023-05-12T11:25:47.941Z,39.90
2023-05-12T11:26:47.946Z,40.57
2023-05-12T11:27:47.947Z,40.01
2023-05-12T11:28:47.921Z,40.08
2023-05-12T11:29:48.049Z,40.31
2023-05-12T11:30:47.926Z,40.31
2023-05-12T11:31:47.968Z,39.74
2023-05-12T11:32:48.026Z,39.80
2023-05-12T11:33:50.421Z,39.89
2023-05-12T11:35:47.937Z,39.49
2023-05-12T11:36:47.913Z,39.81
2023-05-12T11:37:47.977Z,40.24
2023-05-12T11:38:48.098Z,39.60
2023-05-12T11:39:47.985Z,40.67
2023-05-12T11:40:47.935Z,40.67
2023-05-12T11:41:47.949Z,39.94
2023-05-12T11:42:47.978Z,39.08
2023-05-12T11:43:47.925Z,38.08
2023-05-12T11:44:48.129Z,38.20
2023-05-12T11:45:48.043Z,37.35
2023-05-12T11:46:47.979Z,37.69
2023-05-12T11:47:48.005Z,37.23
2023-05-12T11:48:47.927Z,37.23
2023-05-12T11:49:48.046Z,37.46
2023-05-12T11:50:47.980Z,37.89
2023-05-12T11:51:47.957Z,37.39
2023-05-12T11:52:48.026Z,37.96
2023-05-12T11:53:47.974Z,37.96
2023-05-12T11:54:47.986Z,36.86
2023-05-12T11:55:48.013Z,37.39
2023-05-12T11:56:47.985Z,37.39
2023-05-12T11:57:48.038Z,35.84
2023-05-12T11:58:47.964Z,35.84
2023-05-12T11:59:48.025Z,36.86
2023-05-12T12:00:48.016Z,35.94
2023-05-12T12:02:48.080Z,35.40
2023-05-12T12:03:48.071Z,35.17
2023-05-12T12:04:48.013Z,36.03
2023-05-12T12:05:48.038Z,35.84
2023-05-12T12:06:47.971Z,35.84
2023-05-12T12:07:48.056Z,35.86
2023-05-12T12:08:48.056Z,35.99
2023-05-12T12:09:48.046Z,37.44
2023-05-12T12:10:48.040Z,35.55
2023-05-12T12:11:48.022Z,35.55
2023-05-12T12:12:48.052Z,35.82
2023-05-12T12:14:48.124Z,36.22
2023-05-12T12:15:48.100Z,36.02
2023-05-12T12:16:48.056Z,36.38
2023-05-12T12:17:48.077Z,36.56
2023-05-12T12:18:48.112Z,36.57
2023-05-12T12:19:48.041Z,36.57
2023-05-12T12:20:48.123Z,36.32
2023-05-12T12:21:48.067Z,37.04
2023-05-12T12:22:48.088Z,37.26
2023-05-12T12:23:51.503Z,36.77
2023-05-12T12:24:48.043Z,36.54
2023-05-12T12:25:48.095Z,37.72
2023-05-12T12:26:48.032Z,37.72
2023-05-12T12:27:48.124Z,36.98
2023-05-12T12:28:48.100Z,37.15
2023-05-12T12:29:48.060Z,37.15
2023-05-12T12:30:48.235Z,37.24
2023-05-12T12:31:48.178Z,37.54
2023-05-12T12:32:48.123Z,37.04
2023-05-12T12:33:48.116Z,37.19
2023-05-12T12:34:48.100Z,37.81
2023-05-12T12:35:48.136Z,37.24
2023-05-12T12:36:48.140Z,36.80
2023-05-12T12:37:48.099Z,37.25
2023-05-12T12:38:48.150Z,37.19
2023-05-12T12:39:48.127Z,38.16
2023-05-12T12:40:48.115Z,38.64
2023-05-12T12:41:48.198Z,36.67
2023-05-12T12:42:48.106Z,36.67
2023-05-12T12:43:48.121Z,36.94
2023-05-12T12:44:48.142Z,37.03
2023-05-12T12:45:48.095Z,37.03
2023-05-12T12:46:48.153Z,37.50
2023-05-12T12:47:48.172Z,38.05
2023-05-12T12:48:48.150Z,37.93
2023-05-12T12:49:48.167Z,38.14
2023-05-12T12:50:48.155Z,37.65
2023-05-12T12:51:48.139Z,37.25
2023-05-12T12:52:48.143Z,37.88
2023-05-12T12:53:48.168Z,36.95
2023-05-12T12:54:48.153Z,37.06
2023-05-12T12:55:48.098Z,37.06
2023-05-12T12:56:48.195Z,36.72
2023-05-12T12:57:48.149Z,36.98
2023-05-12T12:58:48.154Z,37.26
2023-05-12T12:59:48.188Z,37.21
2023-05-12T13:00:48.164Z,37.02
2023-05-12T13:01:48.181Z,37.65
2023-05-12T13:02:48.472Z,37.05
2023-05-12T13:03:48.119Z,37.05
2023-05-12T13:04:48.181Z,36.66
2023-05-12T13:06:48.196Z,37.26
2023-05-12T13:07:48.152Z,38.22
2023-05-12T13:08:48.150Z,38.22
2023-05-12T13:09:48.171Z,38.30
2023-05-12T13:10:48.152Z,36.47
2023-05-12T13:11:48.156Z,36.60
2023-05-12T13:12:48.214Z,37.75
2023-05-12T13:13:48.187Z,37.44
2023-05-12T13:14:48.277Z,37.17
2023-05-12T13:15:48.200Z,36.27
2023-05-12T13:16:48.229Z,36.27
2023-05-12T13:17:48.236Z,36.93
2023-05-12T13:18:48.309Z,36.54
2023-05-12T13:19:48.204Z,37.20
2023-05-12T13:20:48.236Z,36.30
2023-05-12T13:22:48.244Z,36.70
2023-05-12T13:23:48.267Z,37.31
2023-05-12T13:24:48.225Z,36.38
2023-05-12T13:25:48.236Z,36.79
2023-05-12T13:26:48.181Z,36.79
2023-05-12T13:27:48.257Z,35.63
2023-05-12T13:28:48.242Z,35.83
2023-05-12T13:29:48.226Z,35.83
2023-05-12T13:30:48.275Z,35.89
2023-05-12T13:31:48.270Z,35.58
2023-05-12T13:32:48.308Z,35.58
2023-05-12T13:33:48.208Z,36.38
2023-05-12T13:34:48.266Z,34.76
2023-05-12T13:35:48.249Z,34.82
2023-05-12T13:36:48.268Z,34.64
2023-05-12T13:37:48.274Z,34.64
2023-05-12T13:38:48.241Z,34.82
2023-05-12T13:39:48.259Z,34.84
2023-05-12T13:40:48.294Z,34.88
2023-05-12T13:41:48.281Z,34.65
2023-05-12T13:42:48.248Z,34.65
2023-05-12T13:43:48.303Z,34.43
2023-05-12T13:44:48.292Z,34.97
2023-05-12T13:45:48.274Z,34.75
2023-05-12T13:46:48.410Z,34.41
2023-05-12T13:47:48.274Z,34.41
2023-05-12T13:48:48.256Z,34.74
2023-05-12T13:49:48.315Z,33.85
2023-05-12T13:50:48.289Z,33.68
2023-05-12T13:51:48.295Z,33.45
2023-05-12T13:52:48.318Z,33.74
2023-05-12T13:53:48.328Z,33.97
2023-05-12T13:54:48.322Z,34.43
2023-05-12T13:55:48.279Z,34.43
2023-05-12T13:56:48.329Z,35.15
2023-05-12T13:57:48.307Z,36.02
2023-05-12T13:58:48.325Z,35.66
2023-05-12T13:59:48.313Z,35.35
2023-05-12T14:00:48.300Z,35.66
2023-05-12T14:01:48.350Z,36.30
2023-05-12T14:02:48.409Z,35.96
2023-05-12T14:03:48.325Z,36.11
2023-05-12T14:04:48.376Z,37.01
2023-05-12T14:05:48.296Z,37.01
2023-05-12T14:06:48.336Z,37.80
2023-05-12T14:07:48.296Z,36.65
2023-05-12T14:08:48.310Z,36.01
2023-05-12T14:09:48.367Z,36.48
2023-05-12T14:10:48.367Z,36.33
2023-05-12T14:11:48.346Z,35.51
2023-05-12T14:12:48.380Z,35.64
2023-05-12T14:13:48.328Z,36.17
2023-05-12T14:14:48.357Z,36.19
2023-05-12T14:15:49.624Z,36.42
2023-05-12T14:16:48.486Z,36.42
2023-05-12T14:17:48.483Z,36.04
2023-05-12T14:18:48.418Z,36.04
2023-05-12T14:19:48.380Z,35.63
2023-05-12T14:20:48.366Z,35.16
2023-05-12T14:21:48.339Z,35.16
2023-05-12T14:22:48.405Z,36.15
2023-05-12T14:23:51.114Z,36.15
2023-05-12T14:24:48.356Z,36.05
2023-05-12T14:25:48.408Z,35.91
2023-05-12T14:26:48.362Z,37.07
2023-05-12T14:27:48.482Z,36.50
2023-05-12T14:28:48.489Z,36.89
2023-05-12T14:29:48.414Z,37.26
2023-05-12T14:30:48.539Z,37.26
2023-05-12T14:31:48.394Z,37.05
2023-05-12T14:32:48.462Z,37.61
2023-05-12T14:33:48.436Z,37.72
2023-05-12T14:34:48.371Z,37.72
2023-05-12T14:35:59.388Z,38.17
2023-05-12T14:36:48.435Z,38.24
2023-05-12T14:37:48.431Z,38.77
2023-05-12T14:38:48.412Z,38.40
2023-05-12T14:39:48.404Z,38.40
2023-05-12T14:40:48.455Z,38.87
2023-05-12T14:41:48.436Z,38.93
2023-05-12T14:42:48.435Z,39.29
2023-05-12T14:43:48.403Z,39.29
2023-05-12T14:44:48.425Z,39.31
2023-05-12T14:45:48.465Z,39.31
2023-05-12T14:46:48.436Z,39.51
2023-05-12T14:47:48.472Z,39.37
2023-05-12T14:49:48.473Z,40.23
2023-05-12T14:50:48.455Z,39.94
2023-05-12T14:51:48.486Z,39.79
2023-05-12T14:53:48.472Z,39.76
2023-05-12T14:54:48.492Z,39.27
2023-05-12T14:55:48.437Z,39.82
2023-05-12T14:56:48.457Z,40.21
2023-05-12T14:57:48.449Z,40.14
2023-05-12T14:59:48.470Z,39.86
2023-05-12T15:00:48.502Z,39.86
2023-05-12T15:01:48.499Z,38.94
2023-05-12T15:02:48.581Z,39.56